Airfield :
LOGIN :

Register | Disclaimer

   EN    FR    IT 

 










Legend :    VFR   Marginal VFR   IFR   Intensive IFR   Very Intensive IFR
Visi :
Ceiling :
>= 8 km
>= 3000ft
5 to 8 km
1000 to 3000 ft
1500m to 5 km
500 to 1000 ft
800 to 1500m
200 to 500 ft
< 800m
< 200 ft
Symbols :   Thunderstorms  Fog  Heavy snow  Heavy precipitations  Wind > 20 kt
SIGMETs :     Misc.  Thunderstorms  Icing  Turbulence  Mountain Waves  Volcanic Ashes






- Airport Elevation : 313 ft
- IATA code : LEH


LFOH - Le Havre Octeville

CURRENT METAR :
  • 032330Z AUTO 28006KT 240V320 CAVOK 15/12 Q1023

EXPIRED METARs :
  • 032300Z AUTO 29007KT 260V330 CAVOK 15/12 Q1023
  • 032230Z AUTO 29007KT 240V330 CAVOK 15/12 Q1023
  • 032200Z AUTO 28006KT 250V310 CAVOK 16/12 Q1023
  • 032130Z AUTO 30006KT CAVOK 15/12 Q1023
  • 032100Z AUTO 30007KT CAVOK 15/12 Q1022

TAF TAF LFOH
Valid from the 03 at 12:00 until the 04 at 12:00 UTC


031100Z 0312/0412 28009KT 9999 BKN035
PROB30 0403/0407 3000 BR BKN005
ATIS : +33 2 35 54 64 93



MET'MAP, your aeronautical weather chart ! - Copyright ORBIFLY December 2007 - Disclaimer

ORBIFLY MET'MAP TEAM :

Programming & Development : Alexandra Zaïnal
Original concept : Baudouin d'Aumeries
Technical & hardware support : Manuel Goepfert
Assistance : Marc-Olivier Méhu




SOURCES & CREDITS :

   NOAA